sensor_id;sensor_type;location;lat;lon;timestamp;pressure;altitude;pressure_sealevel;temperature;humidity
45441;BME280;31189;38.790;-77.084;2022-08-04T00:00:13;101240.97;;;33.35;39.70
45441;BME280;31189;38.790;-77.084;2022-08-04T00:02:54;101243.84;;;32.67;40.36
45441;BME280;31189;38.790;-77.084;2022-08-04T00:05:32;101249.98;;;32.45;40.70
45441;BME280;31189;38.790;-77.084;2022-08-04T00:08:11;101257.71;;;31.42;42.62
45441;BME280;31189;38.790;-77.084;2022-08-04T00:10:46;101264.48;;;32.51;41.19
45441;BME280;31189;38.790;-77.084;2022-08-04T00:13:16;101271.32;;;31.73;41.53
45441;BME280;31189;38.790;-77.084;2022-08-04T00:15:52;101276.12;;;32.21;41.12
45441;BME280;31189;38.790;-77.084;2022-08-04T00:18:25;101278.52;;;31.36;42.96
45441;BME280;31189;38.790;-77.084;2022-08-04T00:20:56;101280.67;;;31.89;42.43
45441;BME280;31189;38.790;-77.084;2022-08-04T00:23:26;101277.53;;;31.56;43.25
45441;BME280;31189;38.790;-77.084;2022-08-04T00:25:56;101285.92;;;31.28;43.48
45441;BME280;31189;38.790;-77.084;2022-08-04T00:28:24;101295.23;;;31.06;43.70
45441;BME280;31189;38.790;-77.084;2022-08-04T00:30:53;101299.81;;;29.72;46.22
45441;BME280;31189;38.790;-77.084;2022-08-04T00:33:22;101302.93;;;31.08;44.19
45441;BME280;31189;38.790;-77.084;2022-08-04T00:35:50;101299.97;;;31.35;43.44
45441;BME280;31189;38.790;-77.084;2022-08-04T00:38:19;101305.75;;;30.88;44.66
45441;BME280;31189;38.790;-77.084;2022-08-04T00:40:52;101313.44;;;30.42;44.69
45441;BME280;31189;38.790;-77.084;2022-08-04T00:43:29;101324.52;;;31.12;45.06
45441;BME280;31189;38.790;-77.084;2022-08-04T00:46:18;101329.24;;;31.22;45.11
45441;BME280;31189;38.790;-77.084;2022-08-04T00:49:02;101331.33;;;31.17;45.01
45441;BME280;31189;38.790;-77.084;2022-08-04T00:51:46;101337.57;;;31.60;44.46
45441;BME280;31189;38.790;-77.084;2022-08-04T00:54:25;101342.51;;;30.95;45.50
45441;BME280;31189;38.790;-77.084;2022-08-04T00:57:05;101345.81;;;31.28;44.82
45441;BME280;31189;38.790;-77.084;2022-08-04T00:59:50;101355.28;;;31.02;45.82
45441;BME280;31189;38.790;-77.084;2022-08-04T01:02:27;101359.59;;;30.66;45.97
45441;BME280;31189;38.790;-77.084;2022-08-04T01:05:04;101364.63;;;31.48;45.03
45441;BME280;31189;38.790;-77.084;2022-08-04T01:07:59;101370.09;;;31.54;45.33
45441;BME280;31189;38.790;-77.084;2022-08-04T01:10:43;101388.22;;;32.16;43.79
45441;BME280;31189;38.790;-77.084;2022-08-04T01:13:44;101404.18;;;31.94;43.59
45441;BME280;31189;38.790;-77.084;2022-08-04T01:16:17;101412.13;;;32.26;43.31
45441;BME280;31189;38.790;-77.084;2022-08-04T01:18:51;101421.45;;;31.55;43.90
45441;BME280;31189;38.790;-77.084;2022-08-04T01:21:40;101424.85;;;32.03;44.27
45441;BME280;31189;38.790;-77.084;2022-08-04T01:24:24;101419.22;;;31.51;45.42
45441;BME280;31189;38.790;-77.084;2022-08-04T01:26:59;101417.74;;;32.10;44.51
45441;BME280;31189;38.790;-77.084;2022-08-04T01:29:30;101420.65;;;32.21;44.09
45441;BME280;31189;38.790;-77.084;2022-08-04T01:32:03;101428.89;;;32.01;44.45
45441;BME280;31189;38.790;-77.084;2022-08-04T01:34:36;101438.83;;;31.71;44.99
45441;BME280;31189;38.790;-77.084;2022-08-04T01:37:22;101447.38;;;32.00;44.71
45441;BME280;31189;38.790;-77.084;2022-08-04T01:40:00;101452.15;;;31.10;46.39
45441;BME280;31189;38.790;-77.084;2022-08-04T01:42:32;101458.38;;;32.11;45.40
45441;BME280;31189;38.790;-77.084;2022-08-04T01:45:01;101469.54;;;32.41;44.19
45441;BME280;31189;38.790;-77.084;2022-08-04T01:47:34;101472.01;;;32.66;44.14
45441;BME280;31189;38.790;-77.084;2022-08-04T01:50:05;101471.28;;;31.73;45.30
45441;BME280;31189;38.790;-77.084;2022-08-04T01:52:36;101472.45;;;31.90;45.55
45441;BME280;31189;38.790;-77.084;2022-08-04T01:55:06;101473.20;;;32.27;45.44
45441;BME280;31189;38.790;-77.084;2022-08-04T01:57:36;101473.71;;;32.06;45.53
45441;BME280;31189;38.790;-77.084;2022-08-04T02:00:09;101476.35;;;32.13;45.98
45441;BME280;31189;38.790;-77.084;2022-08-04T02:02:37;101474.57;;;31.57;47.05
45441;BME280;31189;38.790;-77.084;2022-08-04T02:05:05;101481.51;;;31.18;47.71
45441;BME280;31189;38.790;-77.084;2022-08-04T02:07:44;101482.61;;;31.53;46.91
45441;BME280;31189;38.790;-77.084;2022-08-04T02:10:21;101483.06;;;32.23;46.39
45441;BME280;31189;38.790;-77.084;2022-08-04T02:12:58;101479.63;;;31.89;46.05
45441;BME280;31189;38.790;-77.084;2022-08-04T02:15:38;101478.43;;;31.79;47.49
45441;BME280;31189;38.790;-77.084;2022-08-04T02:18:18;101484.58;;;32.37;45.96
45441;BME280;31189;38.790;-77.084;2022-08-04T02:20:55;101487.16;;;31.42;47.61
45441;BME280;31189;38.790;-77.084;2022-08-04T02:23:29;101486.47;;;31.22;48.84
45441;BME280;31189;38.790;-77.084;2022-08-04T02:26:01;101493.38;;;31.99;46.02
45441;BME280;31189;38.790;-77.084;2022-08-04T02:28:35;101493.27;;;32.18;46.38
45441;BME280;31189;38.790;-77.084;2022-08-04T02:31:24;101493.05;;;32.21;46.84
45441;BME280;31189;38.790;-77.084;2022-08-04T02:34:02;101492.01;;;31.82;47.90
45441;BME280;31189;38.790;-77.084;2022-08-04T02:36:35;101493.90;;;32.30;47.36
45441;BME280;31189;38.790;-77.084;2022-08-04T02:39:05;101495.99;;;32.05;47.14
45441;BME280;31189;38.790;-77.084;2022-08-04T02:41:33;101497.78;;;32.42;47.45
45441;BME280;31189;38.790;-77.084;2022-08-04T02:44:08;101497.61;;;32.17;48.50
45441;BME280;31189;38.790;-77.084;2022-08-04T02:46:37;101492.55;;;31.80;50.03
45441;BME280;31189;38.790;-77.084;2022-08-04T02:49:06;101491.95;;;30.85;51.85
45441;BME280;31189;38.790;-77.084;2022-08-04T02:51:36;101488.48;;;30.68;53.35
45441;BME280;31189;38.790;-77.084;2022-08-04T02:54:05;101495.41;;;30.40;55.05
45441;BME280;31189;38.790;-77.084;2022-08-04T02:56:37;101492.82;;;31.68;50.52
45441;BME280;31189;38.790;-77.084;2022-08-04T02:59:07;101484.81;;;31.50;49.11
45441;BME280;31189;38.790;-77.084;2022-08-04T03:01:36;101481.18;;;31.52;50.45
45441;BME280;31189;38.790;-77.084;2022-08-04T03:04:14;101482.12;;;31.58;50.89
45441;BME280;31189;38.790;-77.084;2022-08-04T03:07:26;101483.19;;;31.14;51.75
45441;BME280;31189;38.790;-77.084;2022-08-04T03:10:16;101480.41;;;30.83;52.52
45441;BME280;31189;38.790;-77.084;2022-08-04T03:13:05;101477.31;;;30.98;52.54
45441;BME280;31189;38.790;-77.084;2022-08-04T03:17:23;101471.92;;;30.49;56.78
45441;BME280;31189;38.790;-77.084;2022-08-04T03:20:44;101475.31;;;30.95;55.71
45441;BME280;31189;38.790;-77.084;2022-08-04T03:23:36;101478.80;;;31.14;55.17
45441;BME280;31189;38.790;-77.084;2022-08-04T03:26:42;101478.94;;;30.64;56.90
45441;BME280;31189;38.790;-77.084;2022-08-04T03:30:04;101477.57;;;30.83;56.80
45441;BME280;31189;38.790;-77.084;2022-08-04T03:33:54;101479.06;;;31.71;54.21
45441;BME280;31189;38.790;-77.084;2022-08-04T03:36:45;101480.88;;;30.74;54.69
45441;BME280;31189;38.790;-77.084;2022-08-04T03:39:36;101478.92;;;31.11;53.63
45441;BME280;31189;38.790;-77.084;2022-08-04T03:42:29;101476.58;;;30.49;55.06
45441;BME280;31189;38.790;-77.084;2022-08-04T03:45:22;101480.53;;;31.26;53.92
45441;BME280;31189;38.790;-77.084;2022-08-04T03:48:08;101483.68;;;31.32;54.21
45441;BME280;31189;38.790;-77.084;2022-08-04T03:50:51;101479.24;;;30.96;55.51
45441;BME280;31189;38.790;-77.084;2022-08-04T03:53:33;101478.91;;;31.16;54.13
45441;BME280;31189;38.790;-77.084;2022-08-04T03:56:53;101479.04;;;31.48;54.80
45441;BME280;31189;38.790;-77.084;2022-08-04T03:59:44;101481.77;;;31.36;50.30
45441;BME280;31189;38.790;-77.084;2022-08-04T04:02:43;101484.29;;;31.26;54.33
45441;BME280;31189;38.790;-77.084;2022-08-04T04:05:36;101488.68;;;31.08;54.43
45441;BME280;31189;38.790;-77.084;2022-08-04T04:08:22;101485.95;;;30.58;55.67
45441;BME280;31189;38.790;-77.084;2022-08-04T04:11:16;101483.86;;;29.72;58.63
45441;BME280;31189;38.790;-77.084;2022-08-04T04:14:07;101478.88;;;29.57;58.66
45441;BME280;31189;38.790;-77.084;2022-08-04T04:16:46;101477.80;;;29.64;61.39
45441;BME280;31189;38.790;-77.084;2022-08-04T04:19:27;101474.36;;;30.06;60.20
45441;BME280;31189;38.790;-77.084;2022-08-04T04:22:10;101469.81;;;30.17;59.60
45441;BME280;31189;38.790;-77.084;2022-08-04T04:24:53;101465.55;;;30.27;58.22
45441;BME280;31189;38.790;-77.084;2022-08-04T04:27:39;101467.64;;;30.72;59.07
45441;BME280;31189;38.790;-77.084;2022-08-04T04:30:10;101470.19;;;31.19;57.14
45441;BME280;31189;38.790;-77.084;2022-08-04T04:32:53;101471.09;;;30.94;58.01
45441;BME280;31189;38.790;-77.084;2022-08-04T04:35:36;101472.47;;;30.94;58.57
45441;BME280;31189;38.790;-77.084;2022-08-04T04:38:29;101480.12;;;30.75;54.69
45441;BME280;31189;38.790;-77.084;2022-08-04T04:41:14;101482.23;;;30.65;54.99
45441;BME280;31189;38.790;-77.084;2022-08-04T04:44:04;101485.27;;;31.23;52.90
45441;BME280;31189;38.790;-77.084;2022-08-04T04:46:42;101479.34;;;31.27;55.05
45441;BME280;31189;38.790;-77.084;2022-08-04T04:49:21;101474.94;;;30.97;56.42
45441;BME280;31189;38.790;-77.084;2022-08-04T04:51:57;101474.16;;;30.69;58.18
45441;BME280;31189;38.790;-77.084;2022-08-04T04:54:34;101471.92;;;31.40;58.27
45441;BME280;31189;38.790;-77.084;2022-08-04T04:57:10;101474.00;;;30.80;58.41
45441;BME280;31189;38.790;-77.084;2022-08-04T04:59:48;101480.54;;;30.75;58.41
45441;BME280;31189;38.790;-77.084;2022-08-04T05:03:18;101477.10;;;31.80;58.10
45441;BME280;31189;38.790;-77.084;2022-08-04T05:06:19;101475.00;;;30.64;58.48
45441;BME280;31189;38.790;-77.084;2022-08-04T05:09:10;101470.02;;;30.50;59.10
45441;BME280;31189;38.790;-77.084;2022-08-04T05:12:33;101467.39;;;30.20;58.29
45441;BME280;31189;38.790;-77.084;2022-08-04T05:15:05;101463.80;;;30.59;56.16
45441;BME280;31189;38.790;-77.084;2022-08-04T05:17:37;101462.97;;;28.91;68.67
45441;BME280;31189;38.790;-77.084;2022-08-04T05:20:10;101462.22;;;30.47;63.09
45441;BME280;31189;38.790;-77.084;2022-08-04T05:22:42;101462.71;;;30.41;63.71
45441;BME280;31189;38.790;-77.084;2022-08-04T05:25:15;101457.65;;;30.20;64.31
45441;BME280;31189;38.790;-77.084;2022-08-04T05:27:50;101456.42;;;30.08;61.72
45441;BME280;31189;38.790;-77.084;2022-08-04T05:30:19;101456.62;;;30.21;62.86
45441;BME280;31189;38.790;-77.084;2022-08-04T05:32:55;101456.93;;;29.67;63.12
45441;BME280;31189;38.790;-77.084;2022-08-04T05:35:31;101452.11;;;29.75;63.35
45441;BME280;31189;38.790;-77.084;2022-08-04T05:38:02;101448.77;;;28.52;74.75
45441;BME280;31189;38.790;-77.084;2022-08-04T05:40:31;101447.70;;;29.46;70.63
45441;BME280;31189;38.790;-77.084;2022-08-04T05:42:59;101446.23;;;29.43;68.85
45441;BME280;31189;38.790;-77.084;2022-08-04T05:45:28;101452.03;;;29.57;71.81
45441;BME280;31189;38.790;-77.084;2022-08-04T05:47:57;101448.64;;;28.89;76.67
45441;BME280;31189;38.790;-77.084;2022-08-04T05:50:32;101448.80;;;29.46;75.40
45441;BME280;31189;38.790;-77.084;2022-08-04T05:53:00;101450.96;;;28.14;82.58
45441;BME280;31189;38.790;-77.084;2022-08-04T05:55:28;101451.36;;;29.71;75.72
45441;BME280;31189;38.790;-77.084;2022-08-04T05:57:58;101447.24;;;28.71;83.75
45441;BME280;31189;38.790;-77.084;2022-08-04T06:00:27;101442.06;;;28.47;84.97
45441;BME280;31189;38.790;-77.084;2022-08-04T06:02:56;101435.00;;;29.72;80.09
45441;BME280;31189;38.790;-77.084;2022-08-04T06:05:26;101432.15;;;27.71;90.06
45441;BME280;31189;38.790;-77.084;2022-08-04T06:07:54;101422.10;;;28.76;83.63
45441;BME280;31189;38.790;-77.084;2022-08-04T06:10:39;101418.34;;;26.68;92.60
45441;BME280;31189;38.790;-77.084;2022-08-04T06:13:11;101419.85;;;28.35;86.82
45441;BME280;31189;38.790;-77.084;2022-08-04T06:15:41;101423.55;;;28.35;85.54
45441;BME280;31189;38.790;-77.084;2022-08-04T06:18:10;101429.00;;;29.79;79.97
45441;BME280;31189;38.790;-77.084;2022-08-04T06:20:41;101428.14;;;29.50;82.31
45441;BME280;31189;38.790;-77.084;2022-08-04T06:23:13;101423.85;;;29.28;82.61
45441;BME280;31189;38.790;-77.084;2022-08-04T06:25:59;101424.01;;;29.68;79.51
45441;BME280;31189;38.790;-77.084;2022-08-04T06:28:28;101422.26;;;28.46;86.07
45441;BME280;31189;38.790;-77.084;2022-08-04T06:30:57;101420.35;;;29.70;79.45
45441;BME280;31189;38.790;-77.084;2022-08-04T06:33:26;101422.97;;;29.16;83.46
45441;BME280;31189;38.790;-77.084;2022-08-04T06:35:56;101428.35;;;29.20;82.98
45441;BME280;31189;38.790;-77.084;2022-08-04T06:38:27;101431.97;;;30.08;76.89
45441;BME280;31189;38.790;-77.084;2022-08-04T06:40:56;101428.83;;;30.05;76.43
45441;BME280;31189;38.790;-77.084;2022-08-04T06:43:26;101428.77;;;30.29;75.85
45441;BME280;31189;38.790;-77.084;2022-08-04T06:45:55;101423.32;;;30.10;74.84
45441;BME280;31189;38.790;-77.084;2022-08-04T06:48:24;101426.58;;;30.14;74.37
45441;BME280;31189;38.790;-77.084;2022-08-04T06:50:53;101425.53;;;30.11;74.56
45441;BME280;31189;38.790;-77.084;2022-08-04T06:53:22;101422.20;;;30.56;71.88
45441;BME280;31189;38.790;-77.084;2022-08-04T06:55:51;101423.54;;;30.83;71.96
45441;BME280;31189;38.790;-77.084;2022-08-04T06:58:21;101424.50;;;30.44;72.51
45441;BME280;31189;38.790;-77.084;2022-08-04T07:00:50;101428.74;;;29.97;74.52
45441;BME280;31189;38.790;-77.084;2022-08-04T07:03:19;101429.74;;;30.46;71.61
45441;BME280;31189;38.790;-77.084;2022-08-04T07:05:48;101423.42;;;30.51;71.02
45441;BME280;31189;38.790;-77.084;2022-08-04T07:08:16;101420.85;;;30.38;71.48
45441;BME280;31189;38.790;-77.084;2022-08-04T07:10:46;101420.79;;;30.10;71.31
45441;BME280;31189;38.790;-77.084;2022-08-04T07:13:15;101422.31;;;30.23;71.99
45441;BME280;31189;38.790;-77.084;2022-08-04T07:15:46;101422.99;;;30.07;73.24
45441;BME280;31189;38.790;-77.084;2022-08-04T07:18:14;101421.32;;;30.11;72.82
45441;BME280;31189;38.790;-77.084;2022-08-04T07:20:43;101424.53;;;30.03;72.56
45441;BME280;31189;38.790;-77.084;2022-08-04T07:23:13;101430.29;;;29.47;75.07
45441;BME280;31189;38.790;-77.084;2022-08-04T07:25:42;101426.37;;;29.91;73.56
45441;BME280;31189;38.790;-77.084;2022-08-04T07:28:10;101428.33;;;29.92;73.49
45441;BME280;31189;38.790;-77.084;2022-08-04T07:30:40;101433.81;;;29.89;74.25
45441;BME280;31189;38.790;-77.084;2022-08-04T07:33:10;101433.02;;;29.98;72.58
45441;BME280;31189;38.790;-77.084;2022-08-04T07:35:38;101432.15;;;30.09;72.05
45441;BME280;31189;38.790;-77.084;2022-08-04T07:38:07;101429.06;;;29.78;74.90
45441;BME280;31189;38.790;-77.084;2022-08-04T07:40:35;101429.35;;;28.36;89.03
45441;BME280;31189;38.790;-77.084;2022-08-04T07:43:04;101431.59;;;28.47;86.83
45441;BME280;31189;38.790;-77.084;2022-08-04T07:45:32;101434.68;;;29.13;85.99
45441;BME280;31189;38.790;-77.084;2022-08-04T07:48:00;101432.61;;;29.13;81.97
45441;BME280;31189;38.790;-77.084;2022-08-04T07:50:29;101435.15;;;29.60;82.64
45441;BME280;31189;38.790;-77.084;2022-08-04T07:52:58;101436.64;;;29.21;78.25
45441;BME280;31189;38.790;-77.084;2022-08-04T07:55:27;101437.72;;;28.80;82.83
45441;BME280;31189;38.790;-77.084;2022-08-04T07:57:56;101434.83;;;29.78;76.88
45441;BME280;31189;38.790;-77.084;2022-08-04T08:00:24;101439.35;;;29.97;75.75
45441;BME280;31189;38.790;-77.084;2022-08-04T08:02:54;101437.28;;;28.97;87.64
45441;BME280;31189;38.790;-77.084;2022-08-04T08:05:23;101435.65;;;29.20;89.19
45441;BME280;31189;38.790;-77.084;2022-08-04T08:07:51;101437.84;;;28.93;88.99
45441;BME280;31189;38.790;-77.084;2022-08-04T08:10:19;101439.00;;;28.92;91.44
45441;BME280;31189;38.790;-77.084;2022-08-04T08:12:47;101431.71;;;28.85;92.21
45441;BME280;31189;38.790;-77.084;2022-08-04T08:15:15;101429.87;;;29.11;89.05
45441;BME280;31189;38.790;-77.084;2022-08-04T08:17:44;101430.65;;;29.57;89.18
45441;BME280;31189;38.790;-77.084;2022-08-04T08:20:11;101427.53;;;28.73;94.15
45441;BME280;31189;38.790;-77.084;2022-08-04T08:22:39;101427.45;;;28.60;95.12
45441;BME280;31189;38.790;-77.084;2022-08-04T08:25:08;101426.04;;;28.66;94.77
45441;BME280;31189;38.790;-77.084;2022-08-04T08:27:37;101419.06;;;28.81;94.64
45441;BME280;31189;38.790;-77.084;2022-08-04T08:30:06;101422.53;;;28.50;96.09
45441;BME280;31189;38.790;-77.084;2022-08-04T08:32:34;101425.73;;;28.15;97.87
45441;BME280;31189;38.790;-77.084;2022-08-04T08:35:03;101427.13;;;28.00;99.36
45441;BME280;31189;38.790;-77.084;2022-08-04T08:37:36;101429.88;;;28.58;96.51
45441;BME280;31189;38.790;-77.084;2022-08-04T08:40:17;101424.62;;;28.96;94.08
45441;BME280;31189;38.790;-77.084;2022-08-04T08:43:07;101429.67;;;28.42;99.79
45441;BME280;31189;38.790;-77.084;2022-08-04T08:45:51;101427.83;;;28.25;98.68
45441;BME280;31189;38.790;-77.084;2022-08-04T08:48:39;101426.18;;;27.94;99.77
45441;BME280;31189;38.790;-77.084;2022-08-04T08:51:36;101422.09;;;28.19;99.13
45441;BME280;31189;38.790;-77.084;2022-08-04T08:54:23;101420.41;;;28.16;99.20
45441;BME280;31189;38.790;-77.084;2022-08-04T08:57:10;101420.44;;;26.96;100.00
45441;BME280;31189;38.790;-77.084;2022-08-04T08:59:54;101420.99;;;28.64;99.30
45441;BME280;31189;38.790;-77.084;2022-08-04T09:02:58;101420.27;;;28.73;97.17
45441;BME280;31189;38.790;-77.084;2022-08-04T09:05:47;101419.22;;;29.07;95.64
45441;BME280;31189;38.790;-77.084;2022-08-04T09:08:31;101422.58;;;29.57;92.06
45441;BME280;31189;38.790;-77.084;2022-08-04T09:11:07;101425.68;;;29.30;91.03
45441;BME280;31189;38.790;-77.084;2022-08-04T09:13:42;101424.95;;;30.15;89.34
45441;BME280;31189;38.790;-77.084;2022-08-04T09:16:16;101424.35;;;29.60;90.68
45441;BME280;31189;38.790;-77.084;2022-08-04T09:18:58;101426.31;;;28.51;90.02
45441;BME280;31189;38.790;-77.084;2022-08-04T09:21:35;101426.59;;;29.60;88.25
45441;BME280;31189;38.790;-77.084;2022-08-04T09:24:09;101431.51;;;30.10;87.52
45441;BME280;31189;38.790;-77.084;2022-08-04T09:26:45;101432.35;;;29.82;88.73
45441;BME280;31189;38.790;-77.084;2022-08-04T09:29:19;101436.16;;;30.11;87.17
45441;BME280;31189;38.790;-77.084;2022-08-04T09:31:56;101436.64;;;30.05;87.28
45441;BME280;31189;38.790;-77.084;2022-08-04T09:34:33;101436.91;;;30.00;87.79
45441;BME280;31189;38.790;-77.084;2022-08-04T09:37:16;101442.39;;;29.58;89.49
45441;BME280;31189;38.790;-77.084;2022-08-04T09:40:05;101446.89;;;29.52;91.12
45441;BME280;31189;38.790;-77.084;2022-08-04T09:42:40;101449.57;;;29.20;92.14
45441;BME280;31189;38.790;-77.084;2022-08-04T09:45:18;101453.24;;;29.36;90.58
45441;BME280;31189;38.790;-77.084;2022-08-04T09:47:54;101455.27;;;29.88;89.24
45441;BME280;31189;38.790;-77.084;2022-08-04T09:50:32;101457.66;;;29.62;89.83
45441;BME280;31189;38.790;-77.084;2022-08-04T09:53:12;101456.41;;;29.50;88.93
45441;BME280;31189;38.790;-77.084;2022-08-04T09:55:51;101457.75;;;29.70;88.55
45441;BME280;31189;38.790;-77.084;2022-08-04T09:58:38;101460.33;;;29.47;88.83
45441;BME280;31189;38.790;-77.084;2022-08-04T10:01:10;101463.64;;;29.87;88.97
45441;BME280;31189;38.790;-77.084;2022-08-04T10:03:43;101466.43;;;29.72;89.07
45441;BME280;31189;38.790;-77.084;2022-08-04T10:06:33;101476.35;;;29.46;87.87
45441;BME280;31189;38.790;-77.084;2022-08-04T10:09:16;101482.46;;;29.78;88.41
45441;BME280;31189;38.790;-77.084;2022-08-04T10:12:01;101481.41;;;29.48;89.34
45441;BME280;31189;38.790;-77.084;2022-08-04T10:14:37;101488.03;;;29.14;89.93
45441;BME280;31189;38.790;-77.084;2022-08-04T10:17:25;101503.06;;;29.13;90.63
45441;BME280;31189;38.790;-77.084;2022-08-04T10:20:07;101503.72;;;29.55;89.68
45441;BME280;31189;38.790;-77.084;2022-08-04T10:22:40;101506.44;;;29.32;88.98
45441;BME280;31189;38.790;-77.084;2022-08-04T10:25:21;101508.78;;;29.02;89.52
45441;BME280;31189;38.790;-77.084;2022-08-04T10:27:54;101509.22;;;29.16;91.61
45441;BME280;31189;38.790;-77.084;2022-08-04T10:30:25;101505.82;;;29.70;89.47
45441;BME280;31189;38.790;-77.084;2022-08-04T10:33:02;101507.95;;;29.28;89.64
45441;BME280;31189;38.790;-77.084;2022-08-04T10:35:34;101507.78;;;29.36;89.47
45441;BME280;31189;38.790;-77.084;2022-08-04T10:38:15;101515.98;;;29.05;90.40
45441;BME280;31189;38.790;-77.084;2022-08-04T10:40:48;101523.16;;;29.54;89.75
45441;BME280;31189;38.790;-77.084;2022-08-04T10:43:29;101526.79;;;29.15;90.77
45441;BME280;31189;38.790;-77.084;2022-08-04T10:46:06;101525.35;;;29.53;90.06
45441;BME280;31189;38.790;-77.084;2022-08-04T10:48:42;101524.47;;;29.20;91.50
45441;BME280;31189;38.790;-77.084;2022-08-04T10:51:20;101528.16;;;29.49;90.72
45441;BME280;31189;38.790;-77.084;2022-08-04T10:53:57;101530.35;;;29.58;90.32
45441;BME280;31189;38.790;-77.084;2022-08-04T10:56:32;101531.78;;;29.09;90.10
45441;BME280;31189;38.790;-77.084;2022-08-04T10:59:07;101527.28;;;29.38;89.13
45441;BME280;31189;38.790;-77.084;2022-08-04T11:01:39;101528.68;;;29.66;88.99
45441;BME280;31189;38.790;-77.084;2022-08-04T11:04:14;101531.07;;;29.18;89.82
45441;BME280;31189;38.790;-77.084;2022-08-04T11:06:45;101531.09;;;30.08;88.21
45441;BME280;31189;38.790;-77.084;2022-08-04T11:09:14;101532.09;;;29.86;88.97
45441;BME280;31189;38.790;-77.084;2022-08-04T11:11:48;101536.41;;;29.53;89.20
45441;BME280;31189;38.790;-77.084;2022-08-04T11:14:21;101541.18;;;29.29;90.34
45441;BME280;31189;38.790;-77.084;2022-08-04T11:16:53;101542.90;;;29.60;91.60
45441;BME280;31189;38.790;-77.084;2022-08-04T11:19:30;101543.68;;;29.49;90.84
45441;BME280;31189;38.790;-77.084;2022-08-04T11:22:03;101544.59;;;29.95;88.79
45441;BME280;31189;38.790;-77.084;2022-08-04T11:24:37;101545.12;;;30.27;88.97
45441;BME280;31189;38.790;-77.084;2022-08-04T11:27:15;101541.92;;;30.27;89.37
45441;BME280;31189;38.790;-77.084;2022-08-04T11:30:00;101543.07;;;30.09;89.44
45441;BME280;31189;38.790;-77.084;2022-08-04T11:32:36;101540.85;;;29.85;89.63
45441;BME280;31189;38.790;-77.084;2022-08-04T11:35:11;101543.93;;;30.14;89.18
45441;BME280;31189;38.790;-77.084;2022-08-04T11:37:49;101545.73;;;29.14;92.85
45441;BME280;31189;38.790;-77.084;2022-08-04T11:40:23;101547.96;;;29.72;93.69
45441;BME280;31189;38.790;-77.084;2022-08-04T11:42:58;101544.87;;;29.78;92.59
45441;BME280;31189;38.790;-77.084;2022-08-04T11:45:35;101547.80;;;29.96;90.58
45441;BME280;31189;38.790;-77.084;2022-08-04T11:48:08;101550.18;;;30.06;89.67
45441;BME280;31189;38.790;-77.084;2022-08-04T11:50:39;101551.43;;;30.49;88.88
45441;BME280;31189;38.790;-77.084;2022-08-04T11:53:11;101550.79;;;29.08;94.56
45441;BME280;31189;38.790;-77.084;2022-08-04T11:55:40;101545.73;;;30.35;90.48
45441;BME280;31189;38.790;-77.084;2022-08-04T11:58:09;101545.24;;;30.43;90.13
45441;BME280;31189;38.790;-77.084;2022-08-04T12:00:49;101541.09;;;29.14;91.60
45441;BME280;31189;38.790;-77.084;2022-08-04T12:03:30;101540.81;;;29.16;92.65
45441;BME280;31189;38.790;-77.084;2022-08-04T12:06:12;101540.05;;;29.60;90.23
45441;BME280;31189;38.790;-77.084;2022-08-04T12:08:59;101548.18;;;29.30;90.82
45441;BME280;31189;38.790;-77.084;2022-08-04T12:11:44;101555.20;;;30.08;89.37
45441;BME280;31189;38.790;-77.084;2022-08-04T12:14:25;101556.74;;;29.46;88.70
45441;BME280;31189;38.790;-77.084;2022-08-04T12:16:58;101560.24;;;28.85;92.05
45441;BME280;31189;38.790;-77.084;2022-08-04T12:19:34;101560.92;;;29.55;90.20
45441;BME280;31189;38.790;-77.084;2022-08-04T12:22:08;101563.68;;;29.18;91.06
45441;BME280;31189;38.790;-77.084;2022-08-04T12:24:43;101563.48;;;29.77;90.75
45441;BME280;31189;38.790;-77.084;2022-08-04T12:27:15;101563.76;;;28.75;90.22
45441;BME280;31189;38.790;-77.084;2022-08-04T12:29:46;101567.03;;;29.25;89.06
45441;BME280;31189;38.790;-77.084;2022-08-04T12:32:22;101568.85;;;28.42;92.42
45441;BME280;31189;38.790;-77.084;2022-08-04T12:35:05;101565.28;;;29.38;85.41
45441;BME280;31189;38.790;-77.084;2022-08-04T12:37:43;101564.04;;;29.80;86.44
45441;BME280;31189;38.790;-77.084;2022-08-04T12:40:21;101568.47;;;28.70;86.24
45441;BME280;31189;38.790;-77.084;2022-08-04T12:42:55;101571.14;;;30.96;79.78
45441;BME280;31189;38.790;-77.084;2022-08-04T12:45:26;101573.99;;;31.16;79.75
45441;BME280;31189;38.790;-77.084;2022-08-04T12:47:57;101572.43;;;30.51;81.74
45441;BME280;31189;38.790;-77.084;2022-08-04T12:51:45;101570.95;;;30.00;78.51
